sensor_id;sensor_type;location;lat;lon;timestamp;pressure;altitude;pressure_sealevel;temperature;humidity
70254;BME280;57649;42.968;1.608;2022-12-05T00:01:26;97127.88;;;-0.06;94.74
70254;BME280;57649;42.968;1.608;2022-12-05T00:03:54;97135.38;;;0.00;94.47
70254;BME280;57649;42.968;1.608;2022-12-05T00:06:21;97135.38;;;-0.13;94.62
70254;BME280;57649;42.968;1.608;2022-12-05T00:08:47;97126.75;;;-0.15;94.15
70254;BME280;57649;42.968;1.608;2022-12-05T00:11:16;97129.69;;;-0.07;94.18
70254;BME280;57649;42.968;1.608;2022-12-05T00:13:43;97131.31;;;0.07;93.66
70254;BME280;57649;42.968;1.608;2022-12-05T00:16:11;97129.88;;;0.03;93.39
70254;BME280;57649;42.968;1.608;2022-12-05T00:18:37;97130.41;;;-0.05;92.99
70254;BME280;57649;42.968;1.608;2022-12-05T00:21:03;97126.97;;;-0.18;92.99
70254;BME280;57649;42.968;1.608;2022-12-05T00:23:29;97128.13;;;-0.22;93.19
70254;BME280;57649;42.968;1.608;2022-12-05T00:25:55;97127.19;;;-0.21;92.64
70254;BME280;57649;42.968;1.608;2022-12-05T00:28:20;97122.38;;;-0.27;92.79
70254;BME280;57649;42.968;1.608;2022-12-05T00:30:45;97120.38;;;-0.24;93.23
70254;BME280;57649;42.968;1.608;2022-12-05T00:33:11;97128.03;;;-0.21;93.16
70254;BME280;57649;42.968;1.608;2022-12-05T00:35:36;97122.69;;;-0.32;92.95
70254;BME280;57649;42.968;1.608;2022-12-05T00:38:02;97120.41;;;-0.49;93.79
70254;BME280;57649;42.968;1.608;2022-12-05T00:40:27;97129.84;;;-0.60;94.81
70254;BME280;57649;42.968;1.608;2022-12-05T00:42:53;97140.38;;;-0.47;95.09
70254;BME280;57649;42.968;1.608;2022-12-05T00:45:18;97131.31;;;-0.55;95.38
70254;BME280;57649;42.968;1.608;2022-12-05T00:47:44;97131.75;;;-0.62;95.38
70254;BME280;57649;42.968;1.608;2022-12-05T00:50:09;97127.22;;;-0.60;95.04
70254;BME280;57649;42.968;1.608;2022-12-05T00:52:35;97121.13;;;-0.47;95.04
70254;BME280;57649;42.968;1.608;2022-12-05T00:55:00;97118.25;;;-0.44;94.23
70254;BME280;57649;42.968;1.608;2022-12-05T00:57:25;97116.41;;;-0.55;94.54
70254;BME280;57649;42.968;1.608;2022-12-05T00:59:51;97122.06;;;-0.35;93.67
70254;BME280;57649;42.968;1.608;2022-12-05T01:02:16;97117.84;;;-0.38;93.87
70254;BME280;57649;42.968;1.608;2022-12-05T01:04:42;97120.59;;;-0.40;93.41
70254;BME280;57649;42.968;1.608;2022-12-05T01:07:08;97108.06;;;-0.36;92.87
70254;BME280;57649;42.968;1.608;2022-12-05T01:09:33;97110.28;;;-0.43;92.78
70254;BME280;57649;42.968;1.608;2022-12-05T01:11:59;97117.22;;;-0.29;92.16
70254;BME280;57649;42.968;1.608;2022-12-05T01:14:25;97111.59;;;-0.11;91.32
70254;BME280;57649;42.968;1.608;2022-12-05T01:16:52;97115.28;;;-0.14;91.42
70254;BME280;57649;42.968;1.608;2022-12-05T01:19:25;97121.00;;;-0.20;90.88
70254;BME280;57649;42.968;1.608;2022-12-05T01:21:51;97123.19;;;-0.27;90.80
70254;BME280;57649;42.968;1.608;2022-12-05T01:24:18;97124.66;;;-0.23;90.96
70254;BME280;57649;42.968;1.608;2022-12-05T01:26:44;97128.78;;;-0.31;90.50
70254;BME280;57649;42.968;1.608;2022-12-05T01:29:12;97125.94;;;-0.41;91.06
70254;BME280;57649;42.968;1.608;2022-12-05T01:31:41;97130.66;;;-0.33;91.26
70254;BME280;57649;42.968;1.608;2022-12-05T01:34:09;97136.25;;;-0.38;91.37
70254;BME280;57649;42.968;1.608;2022-12-05T01:36:35;97128.38;;;-0.38;91.04
70254;BME280;57649;42.968;1.608;2022-12-05T01:39:01;97139.84;;;-0.52;91.29
70254;BME280;57649;42.968;1.608;2022-12-05T01:41:29;97129.41;;;-0.53;91.14
70254;BME280;57649;42.968;1.608;2022-12-05T01:46:27;97131.31;;;-0.68;91.38
70254;BME280;57649;42.968;1.608;2022-12-05T01:48:57;97141.84;;;-0.68;91.12
70254;BME280;57649;42.968;1.608;2022-12-05T01:51:24;97140.81;;;-0.66;91.68
70254;BME280;57649;42.968;1.608;2022-12-05T01:53:50;97140.16;;;-0.69;91.70
70254;BME280;57649;42.968;1.608;2022-12-05T01:56:16;97144.78;;;-0.60;91.41
70254;BME280;57649;42.968;1.608;2022-12-05T01:58:43;97142.81;;;-0.56;90.78
70254;BME280;57649;42.968;1.608;2022-12-05T02:01:11;97151.09;;;-0.63;91.03
70254;BME280;57649;42.968;1.608;2022-12-05T02:03:39;97151.31;;;-0.66;90.89
70254;BME280;57649;42.968;1.608;2022-12-05T02:06:04;97155.63;;;-0.65;90.73
70254;BME280;57649;42.968;1.608;2022-12-05T02:08:30;97149.94;;;-0.71;91.07
70254;BME280;57649;42.968;1.608;2022-12-05T02:10:56;97149.09;;;-0.72;91.01
70254;BME280;57649;42.968;1.608;2022-12-05T02:28:19;97170.13;;;-0.72;91.16
70254;BME280;57649;42.968;1.608;2022-12-05T02:31:08;97167.38;;;-0.83;91.10
70254;BME280;57649;42.968;1.608;2022-12-05T02:36:38;97174.25;;;-0.68;90.93
70254;BME280;57649;42.968;1.608;2022-12-05T02:41:56;97178.63;;;-0.68;91.02
70254;BME280;57649;42.968;1.608;2022-12-05T02:44:34;97181.69;;;-0.74;91.00
70254;BME280;57649;42.968;1.608;2022-12-05T02:47:03;97180.63;;;-0.85;90.58
70254;BME280;57649;42.968;1.608;2022-12-05T02:49:32;97183.53;;;-1.02;91.38
70254;BME280;57649;42.968;1.608;2022-12-05T02:52:02;97176.06;;;-0.95;91.69
70254;BME280;57649;42.968;1.608;2022-12-05T02:54:32;97171.69;;;-0.82;90.80
70254;BME280;57649;42.968;1.608;2022-12-05T02:56:59;97177.78;;;-0.82;90.07
70254;BME280;57649;42.968;1.608;2022-12-05T02:59:25;97165.28;;;-0.91;90.00
70254;BME280;57649;42.968;1.608;2022-12-05T03:01:51;97168.66;;;-0.76;89.79
70254;BME280;57649;42.968;1.608;2022-12-05T03:04:20;97166.88;;;-0.63;89.04
70254;BME280;57649;42.968;1.608;2022-12-05T03:06:57;97170.22;;;-0.73;88.65
70254;BME280;57649;42.968;1.608;2022-12-05T03:09:34;97165.41;;;-0.67;88.79
70254;BME280;57649;42.968;1.608;2022-12-05T03:14:34;97169.38;;;-0.74;88.50
70254;BME280;57649;42.968;1.608;2022-12-05T03:17:09;97174.53;;;-0.72;88.75
70254;BME280;57649;42.968;1.608;2022-12-05T03:19:45;97175.91;;;-0.67;88.67
70254;BME280;57649;42.968;1.608;2022-12-05T03:22:20;97183.38;;;-0.61;88.03
70254;BME280;57649;42.968;1.608;2022-12-05T03:24:48;97182.75;;;-0.64;88.07
70254;BME280;57649;42.968;1.608;2022-12-05T03:30:13;97172.34;;;-0.66;87.37
70254;BME280;57649;42.968;1.608;2022-12-05T03:36:00;97189.06;;;-0.67;87.79
70254;BME280;57649;42.968;1.608;2022-12-05T03:41:08;97181.47;;;-0.84;87.85
70254;BME280;57649;42.968;1.608;2022-12-05T03:46:15;97196.13;;;-1.07;89.51
70254;BME280;57649;42.968;1.608;2022-12-05T03:48:58;97200.19;;;-1.16;90.64
70254;BME280;57649;42.968;1.608;2022-12-05T03:51:52;97193.50;;;-1.07;89.21
70254;BME280;57649;42.968;1.608;2022-12-05T03:54:41;97191.84;;;-0.95;88.17
70254;BME280;57649;42.968;1.608;2022-12-05T03:57:20;97201.56;;;-0.70;87.47
70254;BME280;57649;42.968;1.608;2022-12-05T04:00:05;97195.13;;;-0.79;87.18
70254;BME280;57649;42.968;1.608;2022-12-05T04:02:39;97196.72;;;-0.76;87.08
70254;BME280;57649;42.968;1.608;2022-12-05T04:05:42;97198.59;;;-0.91;87.17
70254;BME280;57649;42.968;1.608;2022-12-05T04:08:15;97206.88;;;-0.98;87.45
70254;BME280;57649;42.968;1.608;2022-12-05T04:10:45;97213.50;;;-0.92;87.34
70254;BME280;57649;42.968;1.608;2022-12-05T04:13:28;97206.34;;;-0.90;87.06
70254;BME280;57649;42.968;1.608;2022-12-05T04:16:00;97201.75;;;-0.86;87.39
70254;BME280;57649;42.968;1.608;2022-12-05T04:18:54;97202.28;;;-0.81;86.40
70254;BME280;57649;42.968;1.608;2022-12-05T04:21:26;97203.75;;;-0.77;86.74
70254;BME280;57649;42.968;1.608;2022-12-05T04:24:08;97211.97;;;-0.82;86.30
70254;BME280;57649;42.968;1.608;2022-12-05T04:29:36;97217.69;;;-1.02;86.79
70254;BME280;57649;42.968;1.608;2022-12-05T04:32:08;97202.88;;;-1.03;86.80
70254;BME280;57649;42.968;1.608;2022-12-05T04:34:38;97207.09;;;-1.01;86.99
70254;BME280;57649;42.968;1.608;2022-12-05T04:37:09;97203.50;;;-1.00;87.11
70254;BME280;57649;42.968;1.608;2022-12-05T04:39:47;97210.56;;;-1.00;86.58
70254;BME280;57649;42.968;1.608;2022-12-05T04:42:18;97215.75;;;-0.86;86.22
70254;BME280;57649;42.968;1.608;2022-12-05T04:44:50;97208.28;;;-0.79;85.34
70254;BME280;57649;42.968;1.608;2022-12-05T04:47:19;97213.34;;;-0.76;85.52
70254;BME280;57649;42.968;1.608;2022-12-05T04:49:46;97217.66;;;-0.75;85.77
70254;BME280;57649;42.968;1.608;2022-12-05T04:52:13;97213.78;;;-0.69;84.86
70254;BME280;57649;42.968;1.608;2022-12-05T05:00:07;97221.59;;;-0.95;85.63
70254;BME280;57649;42.968;1.608;2022-12-05T05:02:55;97213.91;;;-0.98;85.37
70254;BME280;57649;42.968;1.608;2022-12-05T05:05:24;97216.25;;;-0.81;84.97
70254;BME280;57649;42.968;1.608;2022-12-05T05:07:53;97209.44;;;-0.83;84.34
70254;BME280;57649;42.968;1.608;2022-12-05T05:10:26;97211.41;;;-0.87;84.51
70254;BME280;57649;42.968;1.608;2022-12-05T05:12:55;97218.38;;;-0.86;84.63
70254;BME280;57649;42.968;1.608;2022-12-05T05:15:21;97220.47;;;-0.78;84.06
70254;BME280;57649;42.968;1.608;2022-12-05T05:17:47;97211.31;;;-0.85;83.90
70254;BME280;57649;42.968;1.608;2022-12-05T05:20:16;97206.81;;;-0.83;84.10
70254;BME280;57649;42.968;1.608;2022-12-05T05:22:51;97207.22;;;-0.89;84.44
70254;BME280;57649;42.968;1.608;2022-12-05T05:25:18;97213.72;;;-0.95;84.67
70254;BME280;57649;42.968;1.608;2022-12-05T05:27:52;97207.09;;;-1.01;84.47
70254;BME280;57649;42.968;1.608;2022-12-05T05:30:19;97217.28;;;-0.96;84.61
70254;BME280;57649;42.968;1.608;2022-12-05T05:32:45;97214.38;;;-0.91;84.11
70254;BME280;57649;42.968;1.608;2022-12-05T05:35:11;97207.97;;;-0.87;83.20
70254;BME280;57649;42.968;1.608;2022-12-05T05:37:38;97218.84;;;-0.93;83.37
70254;BME280;57649;42.968;1.608;2022-12-05T05:40:06;97224.66;;;-0.88;83.29
70254;BME280;57649;42.968;1.608;2022-12-05T05:42:32;97229.50;;;-0.95;83.54
70254;BME280;57649;42.968;1.608;2022-12-05T05:44:58;97210.09;;;-1.07;84.40
70254;BME280;57649;42.968;1.608;2022-12-05T05:47:23;97227.34;;;-1.03;84.23
70254;BME280;57649;42.968;1.608;2022-12-05T05:49:49;97238.81;;;-1.04;83.93
70254;BME280;57649;42.968;1.608;2022-12-05T05:52:17;97238.03;;;-0.91;83.43
70254;BME280;57649;42.968;1.608;2022-12-05T05:54:43;97227.97;;;-0.99;83.74
70254;BME280;57649;42.968;1.608;2022-12-05T05:57:08;97229.50;;;-0.95;83.64
70254;BME280;57649;42.968;1.608;2022-12-05T05:59:34;97228.41;;;-1.05;84.05
70254;BME280;57649;42.968;1.608;2022-12-05T06:02:00;97246.94;;;-0.94;83.54
70254;BME280;57649;42.968;1.608;2022-12-05T06:04:26;97240.47;;;-1.03;83.19
70254;BME280;57649;42.968;1.608;2022-12-05T06:06:51;97254.56;;;-1.04;83.49
70254;BME280;57649;42.968;1.608;2022-12-05T06:09:17;97246.59;;;-1.02;82.98
70254;BME280;57649;42.968;1.608;2022-12-05T06:11:43;97266.06;;;-0.92;82.66
70254;BME280;57649;42.968;1.608;2022-12-05T06:14:08;97255.41;;;-1.03;83.31
70254;BME280;57649;42.968;1.608;2022-12-05T06:16:36;97260.25;;;-1.10;83.80
70254;BME280;57649;42.968;1.608;2022-12-05T06:19:02;97259.22;;;-0.94;83.11
70254;BME280;57649;42.968;1.608;2022-12-05T06:21:28;97260.66;;;-1.03;83.04
70254;BME280;57649;42.968;1.608;2022-12-05T06:23:54;97258.50;;;-0.97;83.10
70254;BME280;57649;42.968;1.608;2022-12-05T06:26:20;97259.88;;;-0.91;82.63
70254;BME280;57649;42.968;1.608;2022-12-05T06:28:47;97253.19;;;-0.82;81.77
70254;BME280;57649;42.968;1.608;2022-12-05T06:31:16;97256.31;;;-0.77;81.25
70254;BME280;57649;42.968;1.608;2022-12-05T06:33:42;97267.09;;;-0.67;81.43
70254;BME280;57649;42.968;1.608;2022-12-05T06:36:13;97258.75;;;-0.74;81.99
70254;BME280;57649;42.968;1.608;2022-12-05T06:38:39;97260.09;;;-0.81;81.33
70254;BME280;57649;42.968;1.608;2022-12-05T06:41:12;97268.72;;;-0.79;81.46
70254;BME280;57649;42.968;1.608;2022-12-05T06:43:38;97275.03;;;-0.82;81.07
70254;BME280;57649;42.968;1.608;2022-12-05T06:46:05;97265.34;;;-0.81;81.32
70254;BME280;57649;42.968;1.608;2022-12-05T06:48:31;97261.38;;;-0.74;80.92
70254;BME280;57649;42.968;1.608;2022-12-05T06:50:56;97277.47;;;-0.79;80.57
70254;BME280;57649;42.968;1.608;2022-12-05T06:53:22;97279.34;;;-0.81;80.95
70254;BME280;57649;42.968;1.608;2022-12-05T06:55:57;97285.16;;;-0.75;80.76
70254;BME280;57649;42.968;1.608;2022-12-05T06:58:23;97284.03;;;-0.71;80.10
70254;BME280;57649;42.968;1.608;2022-12-05T07:00:51;97296.94;;;-0.68;79.76
70254;BME280;57649;42.968;1.608;2022-12-05T07:03:38;97282.88;;;-0.94;80.26
70254;BME280;57649;42.968;1.608;2022-12-05T07:06:06;97298.59;;;-0.80;79.96
70254;BME280;57649;42.968;1.608;2022-12-05T07:08:38;97292.03;;;-0.60;79.12
70254;BME280;57649;42.968;1.608;2022-12-05T07:11:07;97293.06;;;-0.63;78.79
70254;BME280;57649;42.968;1.608;2022-12-05T07:13:32;97292.41;;;-0.66;79.19
70254;BME280;57649;42.968;1.608;2022-12-05T07:15:58;97286.31;;;-0.67;79.21
70254;BME280;57649;42.968;1.608;2022-12-05T07:18:24;97278.03;;;-0.61;78.98
70254;BME280;57649;42.968;1.608;2022-12-05T07:21:02;97300.91;;;-0.75;80.17
70254;BME280;57649;42.968;1.608;2022-12-05T07:23:28;97292.78;;;-0.85;79.85
70254;BME280;57649;42.968;1.608;2022-12-05T07:25:54;97299.94;;;-0.87;80.15
70254;BME280;57649;42.968;1.608;2022-12-05T07:28:22;97298.88;;;-0.85;80.37
70254;BME280;57649;42.968;1.608;2022-12-05T07:30:48;97302.16;;;-0.81;79.86
70254;BME280;57649;42.968;1.608;2022-12-05T07:33:14;97310.25;;;-0.84;80.15
70254;BME280;57649;42.968;1.608;2022-12-05T07:35:40;97301.41;;;-0.83;80.07
70254;BME280;57649;42.968;1.608;2022-12-05T07:38:06;97320.31;;;-0.64;79.64
70254;BME280;57649;42.968;1.608;2022-12-05T07:40:31;97313.78;;;-0.71;79.30
70254;BME280;57649;42.968;1.608;2022-12-05T07:42:57;97321.06;;;-0.62;79.16
70254;BME280;57649;42.968;1.608;2022-12-05T07:45:22;97320.59;;;-0.68;79.01
70254;BME280;57649;42.968;1.608;2022-12-05T07:47:48;97330.28;;;-0.69;79.25
70254;BME280;57649;42.968;1.608;2022-12-05T07:50:14;97317.13;;;-0.69;79.06
70254;BME280;57649;42.968;1.608;2022-12-05T07:52:40;97325.56;;;-0.64;79.07
70254;BME280;57649;42.968;1.608;2022-12-05T07:55:06;97336.22;;;-0.52;78.23
70254;BME280;57649;42.968;1.608;2022-12-05T07:57:32;97327.78;;;-0.57;78.78
70254;BME280;57649;42.968;1.608;2022-12-05T07:59:58;97331.84;;;-0.39;77.79
70254;BME280;57649;42.968;1.608;2022-12-05T08:02:24;97346.91;;;-0.28;77.77
70254;BME280;57649;42.968;1.608;2022-12-05T08:04:49;97347.72;;;-0.41;78.00
70254;BME280;57649;42.968;1.608;2022-12-05T08:07:18;97344.44;;;-0.44;79.13
70254;BME280;57649;42.968;1.608;2022-12-05T08:09:44;97342.69;;;-0.44;78.78
70254;BME280;57649;42.968;1.608;2022-12-05T08:12:09;97347.09;;;-0.31;77.45
70254;BME280;57649;42.968;1.608;2022-12-05T08:14:35;97348.06;;;-0.32;78.13
70254;BME280;57649;42.968;1.608;2022-12-05T08:17:01;97346.78;;;-0.40;78.31
70254;BME280;57649;42.968;1.608;2022-12-05T08:19:27;97347.22;;;-0.33;78.09
70254;BME280;57649;42.968;1.608;2022-12-05T08:21:55;97327.97;;;-0.21;76.85
70254;BME280;57649;42.968;1.608;2022-12-05T08:24:21;97332.69;;;-0.26;77.53
70254;BME280;57649;42.968;1.608;2022-12-05T08:26:46;97333.97;;;-0.18;77.06
70254;BME280;57649;42.968;1.608;2022-12-05T08:29:14;97341.25;;;0.04;76.42
70254;BME280;57649;42.968;1.608;2022-12-05T08:31:42;97350.03;;;0.04;76.71
70254;BME280;57649;42.968;1.608;2022-12-05T08:34:10;97350.66;;;0.21;75.82
70254;BME280;57649;42.968;1.608;2022-12-05T08:36:37;97351.94;;;0.28;76.27
70254;BME280;57649;42.968;1.608;2022-12-05T08:39:04;97349.16;;;0.29;75.48
70254;BME280;57649;42.968;1.608;2022-12-05T08:41:31;97345.41;;;0.33;75.72
70254;BME280;57649;42.968;1.608;2022-12-05T08:44:02;97345.59;;;0.43;75.18
70254;BME280;57649;42.968;1.608;2022-12-05T08:46:36;97343.69;;;0.45;75.34
70254;BME280;57649;42.968;1.608;2022-12-05T08:49:04;97344.22;;;0.50;75.06
70254;BME280;57649;42.968;1.608;2022-12-05T08:51:32;97355.28;;;0.55;75.09
70254;BME280;57649;42.968;1.608;2022-12-05T08:54:01;97361.81;;;0.63;75.16
70254;BME280;57649;42.968;1.608;2022-12-05T08:56:27;97354.16;;;0.84;73.96
70254;BME280;57649;42.968;1.608;2022-12-05T08:58:54;97352.69;;;0.92;74.15
70254;BME280;57649;42.968;1.608;2022-12-05T09:01:21;97344.31;;;0.99;73.29
70254;BME280;57649;42.968;1.608;2022-12-05T09:03:49;97347.53;;;1.15;72.37
70254;BME280;57649;42.968;1.608;2022-12-05T09:06:23;97338.91;;;1.13;73.08
70254;BME280;57649;42.968;1.608;2022-12-05T09:08:55;97343.81;;;1.30;71.82
70254;BME280;57649;42.968;1.608;2022-12-05T09:11:24;97353.19;;;1.34;72.33
70254;BME280;57649;42.968;1.608;2022-12-05T09:13:52;97340.94;;;1.33;71.84
70254;BME280;57649;42.968;1.608;2022-12-05T09:16:25;97342.75;;;1.33;71.99
70254;BME280;57649;42.968;1.608;2022-12-05T09:18:53;97352.72;;;1.41;72.31
70254;BME280;57649;42.968;1.608;2022-12-05T09:21:23;97347.91;;;1.59;71.81
70254;BME280;57649;42.968;1.608;2022-12-05T09:23:51;97354.41;;;1.66;70.66
70254;BME280;57649;42.968;1.608;2022-12-05T09:26:21;97343.53;;;1.70;71.77
70254;BME280;57649;42.968;1.608;2022-12-05T09:28:52;97345.94;;;1.85;70.78
70254;BME280;57649;42.968;1.608;2022-12-05T09:31:20;97349.00;;;2.03;69.26
70254;BME280;57649;42.968;1.608;2022-12-05T09:33:48;97343.03;;;2.23;67.62
70254;BME280;57649;42.968;1.608;2022-12-05T09:36:19;97350.53;;;2.52;66.55
70254;BME280;57649;42.968;1.608;2022-12-05T09:38:45;97351.13;;;2.78;64.96
70254;BME280;57649;42.968;1.608;2022-12-05T09:50:20;97339.78;;;3.65;62.93
70254;BME280;57649;42.968;1.608;2022-12-05T09:55:20;97317.44;;;4.21;60.61
70254;BME280;57649;42.968;1.608;2022-12-05T09:57:51;97320.34;;;4.39;59.70
70254;BME280;57649;42.968;1.608;2022-12-05T10:00:21;97322.78;;;4.82;58.08
70254;BME280;57649;42.968;1.608;2022-12-05T10:05:50;97312.97;;;5.24;57.22
70254;BME280;57649;42.968;1.608;2022-12-05T10:11:13;97307.00;;;5.70;55.31
70254;BME280;57649;42.968;1.608;2022-12-05T10:14:04;97302.50;;;5.81;55.33
70254;BME280;57649;42.968;1.608;2022-12-05T10:16:37;97307.28;;;5.96;55.92
70254;BME280;57649;42.968;1.608;2022-12-05T10:19:22;97309.66;;;6.19;54.52
70254;BME280;57649;42.968;1.608;2022-12-05T10:22:12;97303.72;;;6.45;52.75
70254;BME280;57649;42.968;1.608;2022-12-05T10:24:56;97301.84;;;6.55;52.54
70254;BME280;57649;42.968;1.608;2022-12-05T10:27:39;97297.03;;;6.68;52.93
70254;BME280;57649;42.968;1.608;2022-12-05T10:30:42;97285.69;;;7.04;50.92
70254;BME280;57649;42.968;1.608;2022-12-05T10:33:17;97290.53;;;7.08;51.12
70254;BME280;57649;42.968;1.608;2022-12-05T10:35:45;97279.09;;;7.26;50.59
70254;BME280;57649;42.968;1.608;2022-12-05T10:38:23;97275.06;;;7.40;50.19
70254;BME280;57649;42.968;1.608;2022-12-05T10:40:53;97270.75;;;7.57;50.23
70254;BME280;57649;42.968;1.608;2022-12-05T10:43:30;97262.06;;;7.55;50.08
70254;BME280;57649;42.968;1.608;2022-12-05T10:46:01;97257.03;;;7.69;49.15
70254;BME280;57649;42.968;1.608;2022-12-05T10:48:27;97260.44;;;7.80;49.14
70254;BME280;57649;42.968;1.608;2022-12-05T10:50:57;97258.69;;;7.88;48.16
70254;BME280;57649;42.968;1.608;2022-12-05T10:53:28;97254.16;;;8.07;48.41
70254;BME280;57649;42.968;1.608;2022-12-05T10:55:56;97247.19;;;8.14;48.80
70254;BME280;57649;42.968;1.608;2022-12-05T10:58:29;97240.28;;;8.29;47.09
70254;BME280;57649;42.968;1.608;2022-12-05T11:00:59;97233.78;;;8.50;46.91
70254;BME280;57649;42.968;1.608;2022-12-05T11:03:38;97228.38;;;8.76;46.47
70254;BME280;57649;42.968;1.608;2022-12-05T11:06:25;97216.09;;;8.92;45.49
70254;BME280;57649;42.968;1.608;2022-12-05T11:09:16;97225.81;;;9.09;46.36
70254;BME280;57649;42.968;1.608;2022-12-05T11:17:39;97209.50;;;9.37;45.26
70254;BME280;57649;42.968;1.608;2022-12-05T11:22:44;97203.50;;;9.43;44.87
70254;BME280;57649;42.968;1.608;2022-12-05T11:25:32;97196.50;;;9.58;44.51
70254;BME280;57649;42.968;1.608;2022-12-05T11:28:00;97194.31;;;9.54;45.03
70254;BME280;57649;42.968;1.608;2022-12-05T11:33:36;97191.81;;;9.52;44.24
70254;BME280;57649;42.968;1.608;2022-12-05T11:36:10;97186.31;;;9.46;44.73
70254;BME280;57649;42.968;1.608;2022-12-05T11:38:38;97164.78;;;9.47;44.35
70254;BME280;57649;42.968;1.608;2022-12-05T11:51:57;97151.56;;;9.78;43.64
70254;BME280;57649;42.968;1.608;2022-12-05T11:54:44;97140.50;;;9.90;43.17
70254;BME280;57649;42.968;1.608;2022-12-05T11:57:54;97127.66;;;9.77;44.15
70254;BME280;57649;42.968;1.608;2022-12-05T12:05:16;97117.09;;;9.92;43.39
70254;BME280;57649;42.968;1.608;2022-12-05T12:08:02;97115.44;;;9.82;44.64
70254;BME280;57649;42.968;1.608;2022-12-05T12:10:54;97112.03;;;10.05;44.23
70254;BME280;57649;42.968;1.608;2022-12-05T12:13:46;97110.34;;;10.12;43.99
70254;BME280;57649;42.968;1.608;2022-12-05T12:19:21;97096.09;;;10.20;44.24
70254;BME280;57649;42.968;1.608;2022-12-05T12:30:23;97082.19;;;10.41;44.08
70254;BME280;57649;42.968;1.608;2022-12-05T12:33:09;97068.16;;;10.39;44.70
70254;BME280;57649;42.968;1.608;2022-12-05T12:38:51;97060.53;;;10.51;44.48
70254;BME280;57649;42.968;1.608;2022-12-05T12:50:31;97061.13;;;10.92;42.76
70254;BME280;57649;42.968;1.608;2022-12-05T13:01:38;97063.38;;;11.04;40.90
70254;BME280;57649;42.968;1.608;2022-12-05T13:04:11;97049.03;;;10.96;40.09
70254;BME280;57649;42.968;1.608;2022-12-05T13:09:34;97043.75;;;11.26;39.88
70254;BME280;57649;42.968;1.608;2022-12-05T13:12:15;97041.81;;;11.20;39.97
70254;BME280;57649;42.968;1.608;2022-12-05T13:14:55;97032.66;;;11.14;39.41
70254;BME280;57649;42.968;1.608;2022-12-05T13:17:26;97026.69;;;11.27;39.30
70254;BME280;57649;42.968;1.608;2022-12-05T13:19:54;97026.78;;;11.34;39.83
70254;BME280;57649;42.968;1.608;2022-12-05T13:22:23;97023.81;;;11.29;41.60
70254;BME280;57649;42.968;1.608;2022-12-05T13:24:53;97019.91;;;11.16;43.73
70254;BME280;57649;42.968;1.608;2022-12-05T13:27:23;97016.41;;;11.16;44.30
70254;BME280;57649;42.968;1.608;2022-12-05T13:29:55;97014.91;;;11.13;44.02
70254;BME280;57649;42.968;1.608;2022-12-05T13:32:35;97019.63;;;11.26;43.02
70254;BME280;57649;42.968;1.608;2022-12-05T13:35:18;97009.84;;;11.18;44.75
70254;BME280;57649;42.968;1.608;2022-12-05T13:38:03;97007.72;;;11.14;43.89
70254;BME280;57649;42.968;1.608;2022-12-05T13:40:51;97002.88;;;11.09;44.11
70254;BME280;57649;42.968;1.608;2022-12-05T13:43:49;97025.06;;;11.41;43.44
70254;BME280;57649;42.968;1.608;2022-12-05T13:46:29;97011.25;;;11.44;43.26
70254;BME280;57649;42.968;1.608;2022-12-05T13:49:03;96999.91;;;11.57;43.40
70254;BME280;57649;42.968;1.608;2022-12-05T13:51:36;97000.56;;;11.59;43.61
70254;BME280;57649;42.968;1.608;2022-12-05T13:56:54;97005.94;;;11.89;41.54
70254;BME280;57649;42.968;1.608;2022-12-05T14:10:19;97007.47;;;11.68;44.06
70254;BME280;57649;42.968;1.608;2022-12-05T14:12:48;96996.03;;;11.74;43.60
70254;BME280;57649;42.968;1.608;2022-12-05T14:15:31;96999.72;;;11.73;43.93
70254;BME280;57649;42.968;1.608;2022-12-05T14:29:19;97003.34;;;11.66;44.88
70254;BME280;57649;42.968;1.608;2022-12-05T14:32:17;97010.84;;;11.70;44.85
70254;BME280;57649;42.968;1.608;2022-12-05T14:45:28;97014.63;;;11.76;46.00
70254;BME280;57649;42.968;1.608;2022-12-05T14:47:58;97018.59;;;11.65;46.39
70254;BME280;57649;42.968;1.608;2022-12-05T14:55:48;97019.28;;;11.29;47.58
70254;BME280;57649;42.968;1.608;2022-12-05T14:58:27;97016.31;;;11.24;48.04
70254;BME280;57649;42.968;1.608;2022-12-05T15:01:02;97013.13;;;11.06;49.45
70254;BME280;57649;42.968;1.608;2022-12-05T15:03:34;97021.47;;;11.11;48.76
70254;BME280;57649;42.968;1.608;2022-12-05T15:06:10;97026.44;;;10.99;49.83
70254;BME280;57649;42.968;1.608;2022-12-05T15:08:48;97031.72;;;10.84;50.40
70254;BME280;57649;42.968;1.608;2022-12-05T15:11:19;97024.66;;;10.68;51.24
70254;BME280;57649;42.968;1.608;2022-12-05T15:13:59;97020.41;;;10.51;52.18
70254;BME280;57649;42.968;1.608;2022-12-05T15:16:27;97024.09;;;10.50;52.29
70254;BME280;57649;42.968;1.608;2022-12-05T15:19:06;97023.19;;;10.34;52.87
70254;BME280;57649;42.968;1.608;2022-12-05T15:21:43;97021.88;;;10.22;53.15
70254;BME280;57649;42.968;1.608;2022-12-05T15:24:19;97026.94;;;10.09;54.52
70254;BME280;57649;42.968;1.608;2022-12-05T15:26:55;97023.47;;;10.00;54.82
70254;BME280;57649;42.968;1.608;2022-12-05T15:31:52;97032.97;;;9.71;57.61
70254;BME280;57649;42.968;1.608;2022-12-05T15:34:43;97045.50;;;9.62;58.13
70254;BME280;57649;42.968;1.608;2022-12-05T15:42:17;97044.22;;;9.25;60.81
70254;BME280;57649;42.968;1.608;2022-12-05T15:44:42;97051.25;;;9.02;62.25
70254;BME280;57649;42.968;1.608;2022-12-05T15:47:19;97056.91;;;8.99;61.57
70254;BME280;57649;42.968;1.608;2022-12-05T15:49:45;97054.06;;;8.84;63.45
70254;BME280;57649;42.968;1.608;2022-12-05T15:52:31;97054.91;;;8.76;64.67
70254;BME280;57649;42.968;1.608;2022-12-05T15:55:02;97061.06;;;8.77;64.79
70254;BME280;57649;42.968;1.608;2022-12-05T15:57:43;97063.72;;;8.60;65.92
70254;BME280;57649;42.968;1.608;2022-12-05T16:00:13;97056.88;;;8.58;66.70
70254;BME280;57649;42.968;1.608;2022-12-05T16:03:04;97060.69;;;8.47;67.17
70254;BME280;57649;42.968;1.608;2022-12-05T16:05:59;97061.09;;;8.26;68.21
70254;BME280;57649;42.968;1.608;2022-12-05T16:08:25;97065.22;;;8.12;68.71
70254;BME280;57649;42.968;1.608;2022-12-05T16:11:08;97060.19;;;8.09;68.99
70254;BME280;57649;42.968;1.608;2022-12-05T16:13:34;97065.69;;;8.07;69.86
70254;BME280;57649;42.968;1.608;2022-12-05T16:16:00;97075.31;;;8.00;70.71
70254;BME280;57649;42.968;1.608;2022-12-05T16:18:28;97070.78;;;7.84;72.19